Time;durP1;ratioP1;P1;durP2;ratioP2;P2;SDS_P1;SDS_P2;PMS_P1;PMS_P2;Temp;Humidity;BMP_temperature;BMP_pressure;BME280_temperature;BME280_humidity;BME280_pressure;Samples;Min_cycle;Max_cycle;Signal;HPM_P1;HPM_P2
2024/01/21 00:00:45;;;;;;;12.30;6.47;;;;;;;;;;5065040;28;20788;-78
2024/01/21 00:03:10;;;;;;;12.93;6.30;;;;;;;;;;5073559;28;20032;-78
2024/01/21 00:05:35;;;;;;;15.50;7.30;;;;;;;;;;5070939;28;20024;-78
2024/01/21 00:08:00;;;;;;;13.40;7.20;;;;;;;;;;5070990;28;20106;-77
2024/01/21 00:10:26;;;;;;;14.87;7.43;;;;;;;;;;5068684;28;20086;-78
2024/01/21 00:12:51;;;;;;;13.43;6.90;;;;;;;;;;5074720;28;20385;-78
2024/01/21 00:15:16;;;;;;;20.27;9.53;;;;;;;;;;5072762;28;20056;-78
2024/01/21 00:17:41;;;;;;;14.73;7.43;;;;;;;;;;5076626;28;20406;-78
2024/01/21 00:20:06;;;;;;;14.80;7.47;;;;;;;;;;5079085;28;20038;-78
2024/01/21 00:22:32;;;;;;;17.47;8.30;;;;;;;;;;5082061;28;20033;-78
2024/01/21 00:24:57;;;;;;;16.70;8.30;;;;;;;;;;5070760;28;20033;-78
2024/01/21 00:27:22;;;;;;;16.47;7.70;;;;;;;;;;5070588;28;20466;-78
2024/01/21 00:29:47;;;;;;;13.63;6.77;;;;;;;;;;5075837;28;20089;-78
2024/01/21 00:32:12;;;;;;;22.73;7.90;;;;;;;;;;5073514;28;20069;-78
2024/01/21 00:34:38;;;;;;;16.23;7.23;;;;;;;;;;5070253;28;20110;-78
2024/01/21 00:37:03;;;;;;;17.03;8.17;;;;;;;;;;5071785;28;20037;-78
2024/01/21 00:39:28;;;;;;;14.73;6.87;;;;;;;;;;5069752;28;20416;-78
2024/01/21 00:41:55;;;;;;;16.73;7.70;;;;;;;;;;5074172;28;20123;-78
2024/01/21 00:44:20;;;;;;;16.07;7.37;;;;;;;;;;5068593;28;20047;-78
2024/01/21 00:46:47;;;;;;;19.90;8.20;;;;;;;;;;5068960;28;20020;-78
2024/01/21 00:49:12;;;;;;;15.33;7.90;;;;;;;;;;5069939;28;20085;-78
2024/01/21 00:51:37;;;;;;;14.77;8.10;;;;;;;;;;5072883;28;20032;-78
2024/01/21 00:54:03;;;;;;;14.03;7.37;;;;;;;;;;5068509;28;20381;-78
2024/01/21 00:56:28;;;;;;;20.30;8.03;;;;;;;;;;5056257;28;20036;-78
2024/01/21 00:58:53;;;;;;;17.93;8.87;;;;;;;;;;5069885;28;20044;-77
2024/01/21 01:01:19;;;;;;;15.53;7.50;;;;;;;;;;5072055;28;20471;-77
2024/01/21 01:03:44;;;;;;;14.03;7.13;;;;;;;;;;5073463;28;20408;-78
2024/01/21 01:06:09;;;;;;;15.23;7.47;;;;;;;;;;5070335;28;20028;-78
2024/01/21 01:08:34;;;;;;;19.30;8.37;;;;;;;;;;5069403;28;20041;-78
2024/01/21 01:10:59;;;;;;;16.20;8.03;;;;;;;;;;5070209;28;20071;-78
2024/01/21 01:13:25;;;;;;;15.23;8.03;;;;;;;;;;5074699;28;20032;-78
2024/01/21 01:15:50;;;;;;;14.73;8.07;;;;;;;;;;5073838;28;20056;-78
2024/01/21 01:18:15;;;;;;;17.53;6.43;;;;;;;;;;5073271;28;20032;-78
2024/01/21 01:20:40;;;;;;;13.37;6.87;;;;;;;;;;5073027;28;20177;-78
2024/01/21 01:23:05;;;;;;;13.77;7.20;;;;;;;;;;5059255;28;20051;-78
2024/01/21 01:25:31;;;;;;;15.73;6.67;;;;;;;;;;5073296;28;20404;-78
2024/01/21 01:27:56;;;;;;;12.60;6.23;;;;;;;;;;5072012;28;20040;-78
2024/01/21 01:30:21;;;;;;;14.37;7.63;;;;;;;;;;5075236;28;20412;-78
2024/01/21 01:32:46;;;;;;;15.33;7.23;;;;;;;;;;5084432;28;20143;-78
2024/01/21 01:35:11;;;;;;;16.43;7.63;;;;;;;;;;5073330;28;20056;-78
2024/01/21 01:37:37;;;;;;;16.53;7.17;;;;;;;;;;5076728;28;20036;-78
2024/01/21 01:40:03;;;;;;;14.80;7.77;;;;;;;;;;5079058;28;20555;-78
2024/01/21 01:42:29;;;;;;;16.73;7.93;;;;;;;;;;5074739;28;20043;-78
2024/01/21 01:44:54;;;;;;;13.13;6.70;;;;;;;;;;5073953;28;20029;-78
2024/01/21 01:47:19;;;;;;;14.73;6.87;;;;;;;;;;5080427;28;20059;-78
2024/01/21 01:49:45;;;;;;;18.43;7.60;;;;;;;;;;5074745;28;20024;-78
2024/01/21 01:52:12;;;;;;;13.10;6.90;;;;;;;;;;5073494;28;20086;-78
2024/01/21 01:54:39;;;;;;;13.70;6.73;;;;;;;;;;5072877;28;20036;-78
2024/01/21 01:57:05;;;;;;;14.47;6.97;;;;;;;;;;5071639;28;20041;-78
2024/01/21 01:59:31;;;;;;;13.80;6.27;;;;;;;;;;5079496;28;20132;-78
2024/01/21 02:01:57;;;;;;;15.37;7.50;;;;;;;;;;5074587;28;20108;-78
2024/01/21 02:04:22;;;;;;;15.00;6.83;;;;;;;;;;5072607;28;20119;-78
2024/01/21 02:06:47;;;;;;;16.67;6.60;;;;;;;;;;5077460;28;20429;-78
2024/01/21 02:09:13;;;;;;;13.47;6.43;;;;;;;;;;5072256;28;20033;-78
2024/01/21 02:11:38;;;;;;;12.80;6.13;;;;;;;;;;5076300;28;20036;-78
2024/01/21 02:14:03;;;;;;;13.60;6.90;;;;;;;;;;5072972;28;20071;-78
2024/01/21 02:16:28;;;;;;;15.10;6.93;;;;;;;;;;5072491;28;20029;-78
2024/01/21 02:18:54;;;;;;;13.57;6.37;;;;;;;;;;5079012;28;20070;-78
2024/01/21 02:21:19;;;;;;;12.40;6.37;;;;;;;;;;5073712;28;20025;-78
2024/01/21 02:23:44;;;;;;;16.33;8.47;;;;;;;;;;5081596;28;20020;-78
2024/01/21 02:26:09;;;;;;;12.70;6.23;;;;;;;;;;5083485;28;20098;-78
2024/01/21 02:28:34;;;;;;;15.33;6.67;;;;;;;;;;5074640;28;20028;-77
2024/01/21 02:31:00;;;;;;;16.03;7.03;;;;;;;;;;5072322;28;20753;-77
2024/01/21 02:33:26;;;;;;;16.17;6.73;;;;;;;;;;5074739;28;20040;-78
2024/01/21 02:35:51;;;;;;;12.37;6.23;;;;;;;;;;5072939;28;20046;-78
2024/01/21 02:38:16;;;;;;;14.60;6.63;;;;;;;;;;5078784;28;20127;-78
2024/01/21 02:40:41;;;;;;;13.33;6.97;;;;;;;;;;5078951;28;20074;-78
2024/01/21 02:43:07;;;;;;;12.83;6.03;;;;;;;;;;5077770;28;20374;-77
2024/01/21 02:45:33;;;;;;;13.33;6.73;;;;;;;;;;5073990;28;20036;-78
2024/01/21 02:47:58;;;;;;;13.77;6.60;;;;;;;;;;5073014;28;20029;-77
2024/01/21 02:50:23;;;;;;;15.60;7.17;;;;;;;;;;5071227;28;20028;-77
2024/01/21 02:52:48;;;;;;;15.10;6.90;;;;;;;;;;5076148;28;20040;-78
2024/01/21 02:55:13;;;;;;;13.87;6.20;;;;;;;;;;5074760;28;20036;-77
2024/01/21 02:57:39;;;;;;;13.43;6.10;;;;;;;;;;5073886;28;20112;-77
2024/01/21 03:00:04;;;;;;;13.50;6.40;;;;;;;;;;5069942;28;20028;-78
2024/01/21 03:02:30;;;;;;;11.60;5.53;;;;;;;;;;5073916;28;20032;-78
2024/01/21 03:04:55;;;;;;;13.93;5.67;;;;;;;;;;5074666;28;20033;-77
2024/01/21 03:07:20;;;;;;;14.87;5.70;;;;;;;;;;5081709;28;20033;-78
2024/01/21 03:09:45;;;;;;;14.60;5.97;;;;;;;;;;5078071;28;20047;-78
2024/01/21 03:12:10;;;;;;;13.73;6.00;;;;;;;;;;5077108;28;20058;-78
2024/01/21 03:14:36;;;;;;;12.30;5.70;;;;;;;;;;5075423;28;20086;-78
2024/01/21 03:17:03;;;;;;;12.30;5.57;;;;;;;;;;5077740;28;20397;-77
2024/01/21 03:19:28;;;;;;;12.90;5.87;;;;;;;;;;5069543;28;20039;-77
2024/01/21 03:21:53;;;;;;;15.50;6.87;;;;;;;;;;5078280;28;20036;-78
2024/01/21 03:24:18;;;;;;;14.47;6.73;;;;;;;;;;5078504;28;20450;-78
2024/01/21 03:26:43;;;;;;;13.03;5.73;;;;;;;;;;5078918;28;20026;-78
2024/01/21 03:29:08;;;;;;;10.37;5.07;;;;;;;;;;5072268;28;20040;-78
2024/01/21 03:31:33;;;;;;;11.67;5.50;;;;;;;;;;5080563;28;20023;-78
2024/01/21 03:33:59;;;;;;;11.80;5.40;;;;;;;;;;5073115;28;20094;-78
2024/01/21 03:36:24;;;;;;;9.90;4.80;;;;;;;;;;5070152;28;20036;-78
2024/01/21 03:38:50;;;;;;;13.27;5.97;;;;;;;;;;5076461;28;20113;-77
2024/01/21 03:41:16;;;;;;;12.73;4.53;;;;;;;;;;5073059;28;20037;-77
2024/01/21 03:43:41;;;;;;;10.83;4.50;;;;;;;;;;5079094;28;20078;-78
2024/01/21 03:46:06;;;;;;;11.07;5.20;;;;;;;;;;5075951;28;20036;-78
2024/01/21 03:48:31;;;;;;;13.10;5.87;;;;;;;;;;5069515;28;20056;-78
2024/01/21 03:50:56;;;;;;;11.33;5.90;;;;;;;;;;5071312;28;20543;-78
2024/01/21 03:53:21;;;;;;;11.20;4.93;;;;;;;;;;5077290;28;20036;-77
2024/01/21 03:55:47;;;;;;;12.10;5.60;;;;;;;;;;5070736;28;20027;-78
2024/01/21 03:58:12;;;;;;;13.53;5.37;;;;;;;;;;5070673;28;20536;-78
2024/01/21 04:00:37;;;;;;;12.10;6.20;;;;;;;;;;5070212;28;20040;-78
2024/01/21 04:03:02;;;;;;;12.50;4.60;;;;;;;;;;5081009;28;20032;-77
2024/01/21 04:05:27;;;;;;;10.80;4.83;;;;;;;;;;5076990;28;20040;-77
2024/01/21 04:07:52;;;;;;;11.43;5.07;;;;;;;;;;5070761;28;20413;-78
2024/01/21 04:10:18;;;;;;;10.90;4.80;;;;;;;;;;5069077;28;20119;-78
2024/01/21 04:12:43;;;;;;;8.10;4.33;;;;;;;;;;5074985;28;20523;-78
2024/01/21 04:15:08;;;;;;;10.53;5.10;;;;;;;;;;5070793;28;20024;-77
2024/01/21 04:17:33;;;;;;;10.80;5.53;;;;;;;;;;5073175;28;20033;-77
2024/01/21 04:19:59;;;;;;;10.43;4.60;;;;;;;;;;5071096;28;20082;-77
2024/01/21 04:22:24;;;;;;;11.43;4.70;;;;;;;;;;5074552;28;20437;-77
2024/01/21 04:24:49;;;;;;;11.03;5.03;;;;;;;;;;5074588;28;20032;-77
2024/01/21 04:27:14;;;;;;;9.77;5.00;;;;;;;;;;5070018;28;20090;-77
2024/01/21 04:29:39;;;;;;;9.17;3.83;;;;;;;;;;5070401;28;20119;-78
2024/01/21 04:32:05;;;;;;;11.27;5.00;;;;;;;;;;5077558;28;20028;-78
2024/01/21 04:34:30;;;;;;;10.93;4.80;;;;;;;;;;5070822;28;20115;-77
2024/01/21 04:36:55;;;;;;;9.53;4.10;;;;;;;;;;5070485;28;20037;-78
2024/01/21 04:39:21;;;;;;;10.90;4.37;;;;;;;;;;5069695;28;20397;-77
2024/01/21 04:41:47;;;;;;;11.47;5.20;;;;;;;;;;5073438;28;20110;-77
2024/01/21 04:44:12;;;;;;;9.40;4.13;;;;;;;;;;5073658;28;20044;-77
2024/01/21 04:46:37;;;;;;;11.43;4.00;;;;;;;;;;5069277;28;20048;-77
2024/01/21 04:49:02;;;;;;;9.03;3.93;;;;;;;;;;5080251;28;20200;-77
2024/01/21 04:51:28;;;;;;;6.30;2.77;;;;;;;;;;5081536;28;20440;-77
2024/01/21 04:53:53;;;;;;;8.30;4.10;;;;;;;;;;5082553;28;20120;-77
2024/01/21 04:56:18;;;;;;;10.53;4.97;;;;;;;;;;5081165;28;20032;-77
2024/01/21 04:58:44;;;;;;;12.63;4.70;;;;;;;;;;5084329;28;20020;-78
2024/01/21 05:01:09;;;;;;;9.20;4.20;;;;;;;;;;5072638;28;20104;-77
2024/01/21 05:03:34;;;;;;;8.63;3.80;;;;;;;;;;5084003;28;20112;-77
2024/01/21 05:05:59;;;;;;;9.23;4.20;;;;;;;;;;5076994;28;20055;-77
2024/01/21 05:08:25;;;;;;;7.20;3.47;;;;;;;;;;5073393;28;20051;-77
2024/01/21 05:10:50;;;;;;;8.27;4.30;;;;;;;;;;5073389;28;20538;-78
2024/01/21 05:13:15;;;;;;;9.20;4.63;;;;;;;;;;5080179;28;20040;-78
2024/01/21 05:15:40;;;;;;;11.00;5.00;;;;;;;;;;5079085;28;20035;-78
2024/01/21 05:18:05;;;;;;;8.50;4.03;;;;;;;;;;5072459;28;20062;-78
2024/01/21 05:20:31;;;;;;;9.00;3.67;;;;;;;;;;5077697;28;20129;-78
2024/01/21 05:22:56;;;;;;;10.63;4.63;;;;;;;;;;5084375;28;20030;-78
2024/01/21 05:25:21;;;;;;;10.03;4.53;;;;;;;;;;5072339;28;20025;-78
2024/01/21 05:27:46;;;;;;;7.67;4.00;;;;;;;;;;5073256;28;20515;-78
2024/01/21 05:30:12;;;;;;;11.77;4.23;;;;;;;;;;5073166;28;20123;-78
2024/01/21 05:32:37;;;;;;;9.00;3.87;;;;;;;;;;5081814;28;20366;-78
2024/01/21 05:35:03;;;;;;;7.10;3.80;;;;;;;;;;5076122;28;20382;-77
2024/01/21 05:37:28;;;;;;;9.63;3.87;;;;;;;;;;5074460;28;20044;-77
2024/01/21 05:39:53;;;;;;;12.10;4.53;;;;;;;;;;5074619;28;20032;-77
2024/01/21 05:42:18;;;;;;;9.20;4.10;;;;;;;;;;5079835;28;20028;-77
2024/01/21 05:44:44;;;;;;;14.30;4.70;;;;;;;;;;5076086;28;20051;-77
2024/01/21 05:47:09;;;;;;;10.40;4.10;;;;;;;;;;5076490;28;20035;-78
2024/01/21 05:49:34;;;;;;;8.87;4.40;;;;;;;;;;5072371;28;20029;-78
2024/01/21 05:52:00;;;;;;;11.57;4.68;;;;;;;;;;5084639;28;20036;-77
2024/01/21 05:54:25;;;;;;;10.37;4.43;;;;;;;;;;5087699;28;20041;-77
2024/01/21 05:56:50;;;;;;;11.13;5.70;;;;;;;;;;5075561;28;20032;-77
2024/01/21 05:59:17;;;;;;;10.10;4.70;;;;;;;;;;5072633;28;20070;-78
2024/01/21 06:01:43;;;;;;;9.83;4.10;;;;;;;;;;5076179;28;20068;-78
2024/01/21 06:04:08;;;;;;;11.80;4.50;;;;;;;;;;5086058;28;20054;-78
2024/01/21 06:06:33;;;;;;;8.87;4.67;;;;;;;;;;5073508;28;20036;-77
2024/01/21 06:08:58;;;;;;;9.10;4.53;;;;;;;;;;5073218;28;20047;-78
2024/01/21 06:11:24;;;;;;;8.73;3.93;;;;;;;;;;5075886;28;20728;-77
2024/01/21 06:13:49;;;;;;;9.37;4.30;;;;;;;;;;5068115;28;20032;-77
2024/01/21 06:16:17;;;;;;;15.33;5.43;;;;;;;;;;5072514;28;20400;-77
2024/01/21 06:18:43;;;;;;;9.00;4.47;;;;;;;;;;5071689;28;20069;-78
2024/01/21 06:21:08;;;;;;;8.70;3.77;;;;;;;;;;5071089;28;20408;-77
2024/01/21 06:23:33;;;;;;;10.20;4.70;;;;;;;;;;5077652;28;20397;-78
2024/01/21 06:25:58;;;;;;;9.80;4.30;;;;;;;;;;5073997;28;20040;-78
2024/01/21 06:28:23;;;;;;;7.77;3.80;;;;;;;;;;5074966;28;20082;-77
2024/01/21 06:30:49;;;;;;;10.20;4.27;;;;;;;;;;5085623;28;20519;-77
2024/01/21 06:33:14;;;;;;;7.67;3.50;;;;;;;;;;5082254;28;20020;-77
2024/01/21 06:35:39;;;;;;;8.60;3.80;;;;;;;;;;5085073;28;20034;-77
2024/01/21 06:38:04;;;;;;;9.53;4.20;;;;;;;;;;5076417;28;20129;-78
2024/01/21 06:40:30;;;;;;;10.00;4.23;;;;;;;;;;5082781;28;20139;-78
2024/01/21 06:42:55;;;;;;;8.50;4.23;;;;;;;;;;5081883;28;20028;-78
2024/01/21 06:45:20;;;;;;;7.67;3.53;;;;;;;;;;5080031;28;20115;-77
2024/01/21 06:47:45;;;;;;;9.50;4.33;;;;;;;;;;5075181;28;20098;-78
2024/01/21 06:50:10;;;;;;;8.50;3.93;;;;;;;;;;5086716;28;20061;-78
2024/01/21 06:52:35;;;;;;;10.70;4.57;;;;;;;;;;5081985;28;20024;-78
2024/01/21 06:55:01;;;;;;;9.03;4.63;;;;;;;;;;5076792;28;20029;-77
2024/01/21 06:57:26;;;;;;;9.57;3.87;;;;;;;;;;5079434;28;20024;-77
2024/01/21 06:59:51;;;;;;;7.87;4.10;;;;;;;;;;5070904;28;20025;-78
2024/01/21 07:02:16;;;;;;;8.90;4.10;;;;;;;;;;5077877;28;20031;-78
2024/01/21 07:04:42;;;;;;;7.63;3.57;;;;;;;;;;5070087;28;20074;-77
2024/01/21 07:07:08;;;;;;;9.77;4.17;;;;;;;;;;5072671;28;20070;-78
2024/01/21 07:09:33;;;;;;;8.93;3.87;;;;;;;;;;5070369;28;20108;-78
2024/01/21 07:11:58;;;;;;;9.60;4.03;;;;;;;;;;5073533;28;20622;-78
2024/01/21 07:14:24;;;;;;;9.60;4.63;;;;;;;;;;5078985;28;20034;-78
2024/01/21 07:16:49;;;;;;;8.20;3.53;;;;;;;;;;5080255;28;20574;-78
2024/01/21 07:19:14;;;;;;;8.00;3.93;;;;;;;;;;5073849;28;20040;-78
2024/01/21 07:21:40;;;;;;;10.27;4.53;;;;;;;;;;5070678;28;20037;-78
2024/01/21 07:24:05;;;;;;;10.73;4.67;;;;;;;;;;5077713;28;20028;-78
2024/01/21 07:26:30;;;;;;;7.90;3.70;;;;;;;;;;5069254;28;20038;-77
2024/01/21 07:28:55;;;;;;;9.30;4.40;;;;;;;;;;5073291;28;20031;-78
2024/01/21 07:31:21;;;;;;;7.43;3.77;;;;;;;;;;5080031;28;20032;-78
2024/01/21 07:33:46;;;;;;;10.23;4.03;;;;;;;;;;5076114;28;20028;-78
2024/01/21 07:36:11;;;;;;;8.07;3.60;;;;;;;;;;5069276;28;20585;-78
2024/01/21 07:38:36;;;;;;;8.53;3.60;;;;;;;;;;5070990;28;20101;-78
2024/01/21 07:41:03;;;;;;;10.43;4.30;;;;;;;;;;5071038;28;20032;-78
2024/01/21 07:43:28;;;;;;;11.43;4.00;;;;;;;;;;5077642;28;20035;-78
2024/01/21 07:45:53;;;;;;;9.53;4.20;;;;;;;;;;5070794;28;20115;-78
2024/01/21 07:48:18;;;;;;;10.17;4.43;;;;;;;;;;5074750;28;20441;-78
2024/01/21 07:50:43;;;;;;;9.37;3.63;;;;;;;;;;5069398;28;20024;-78
2024/01/21 07:53:09;;;;;;;9.33;4.40;;;;;;;;;;5077305;28;20032;-78
2024/01/21 07:55:34;;;;;;;8.53;3.93;;;;;;;;;;5084545;28;20023;-78
2024/01/21 07:58:01;;;;;;;9.43;4.07;;;;;;;;;;5082007;28;20036;-77
2024/01/21 08:00:26;;;;;;;9.90;4.70;;;;;;;;;;5083193;28;20054;-78
2024/01/21 08:02:51;;;;;;;10.37;5.00;;;;;;;;;;5081958;28;20036;-78
2024/01/21 08:05:16;;;;;;;8.13;4.30;;;;;;;;;;5072599;28;20024;-78
2024/01/21 08:07:41;;;;;;;9.07;4.20;;;;;;;;;;5087716;28;20036;-78
2024/01/21 08:10:07;;;;;;;12.23;4.93;;;;;;;;;;5081532;28;20435;-78
2024/01/21 08:12:32;;;;;;;8.33;4.40;;;;;;;;;;5086145;28;20458;-77
2024/01/21 08:14:57;;;;;;;10.97;5.33;;;;;;;;;;5079028;28;20047;-77
2024/01/21 08:17:23;;;;;;;8.47;4.10;;;;;;;;;;5075811;28;20058;-80
2024/01/21 08:19:49;;;;;;;8.53;4.30;;;;;;;;;;5074721;28;20712;-78
2024/01/21 08:22:14;;;;;;;8.53;4.53;;;;;;;;;;5073997;28;20042;-79
2024/01/21 08:24:39;;;;;;;10.67;5.37;;;;;;;;;;5076722;28;20024;-78
2024/01/21 08:27:05;;;;;;;11.67;4.77;;;;;;;;;;5073865;28;20035;-78
2024/01/21 08:29:30;;;;;;;8.13;4.57;;;;;;;;;;5073153;28;20111;-78
2024/01/21 08:31:56;;;;;;;11.40;4.90;;;;;;;;;;5077544;28;20054;-79
2024/01/21 08:34:21;;;;;;;12.30;4.63;;;;;;;;;;5078202;28;20028;-78
2024/01/21 08:36:50;;;;;;;9.27;4.53;;;;;;;;;;5078527;28;20445;-79
2024/01/21 08:39:15;;;;;;;9.30;5.13;;;;;;;;;;5074540;28;20037;-78
2024/01/21 08:41:40;;;;;;;11.43;5.47;;;;;;;;;;5074529;28;20041;-78
2024/01/21 08:44:06;;;;;;;10.40;5.07;;;;;;;;;;5078861;28;20056;-79
2024/01/21 08:46:31;;;;;;;9.13;4.80;;;;;;;;;;5076889;28;20029;-79
2024/01/21 08:48:57;;;;;;;9.10;4.80;;;;;;;;;;5081677;28;20056;-78
2024/01/21 08:51:22;;;;;;;10.77;5.23;;;;;;;;;;5078319;28;20382;-79
2024/01/21 08:53:47;;;;;;;10.23;5.30;;;;;;;;;;5090928;28;20032;-78
2024/01/21 08:56:13;;;;;;;8.60;4.50;;;;;;;;;;5091572;28;20040;-78
2024/01/21 08:58:38;;;;;;;11.47;5.20;;;;;;;;;;5087675;28;20093;-78
2024/01/21 09:01:03;;;;;;;9.27;4.70;;;;;;;;;;5085293;28;20020;-78
2024/01/21 09:03:30;;;;;;;9.70;5.13;;;;;;;;;;5084022;28;20032;-78
2024/01/21 09:05:55;;;;;;;11.57;5.00;;;;;;;;;;5088771;28;20439;-78
2024/01/21 09:08:21;;;;;;;9.50;5.00;;;;;;;;;;5089753;28;20024;-79
2024/01/21 09:10:47;;;;;;;9.43;5.37;;;;;;;;;;5088149;28;20028;-78
2024/01/21 09:13:13;;;;;;;10.40;6.00;;;;;;;;;;5086640;28;20112;-79
2024/01/21 09:15:38;;;;;;;13.47;8.03;;;;;;;;;;5085493;28;20028;-78
2024/01/21 09:18:04;;;;;;;12.27;6.70;;;;;;;;;;5083675;28;20028;-78
2024/01/21 09:20:29;;;;;;;12.77;8.20;;;;;;;;;;5084385;28;20070;-79
2024/01/21 09:22:55;;;;;;;11.57;6.05;;;;;;;;;;5091433;28;20103;-79
2024/01/21 09:25:20;;;;;;;10.93;6.28;;;;;;;;;;5089187;28;20084;-79
2024/01/21 09:27:45;;;;;;;11.40;6.68;;;;;;;;;;5087269;28;20393;-79
2024/01/21 09:30:11;;;;;;;13.15;7.10;;;;;;;;;;5086418;28;20111;-79
2024/01/21 09:32:36;;;;;;;12.48;6.72;;;;;;;;;;5086322;28;20035;-79
2024/01/21 09:35:01;;;;;;;11.93;6.85;;;;;;;;;;5086298;28;20498;-79
2024/01/21 09:37:26;;;;;;;12.75;7.18;;;;;;;;;;5079283;28;20025;-79
2024/01/21 09:39:51;;;;;;;12.50;6.95;;;;;;;;;;5081001;28;20037;-78
2024/01/21 09:42:17;;;;;;;11.77;6.55;;;;;;;;;;5087658;28;20558;-78
2024/01/21 09:44:43;;;;;;;11.75;5.82;;;;;;;;;;5073390;28;20020;-78
2024/01/21 09:47:09;;;;;;;12.68;6.43;;;;;;;;;;5084580;28;20157;-78
2024/01/21 09:49:35;;;;;;;13.32;7.13;;;;;;;;;;5086945;28;20050;-78
2024/01/21 09:52:01;;;;;;;11.73;5.78;;;;;;;;;;5086060;28;20028;-78
2024/01/21 09:54:26;;;;;;;11.70;5.72;;;;;;;;;;5085413;28;20524;-78
2024/01/21 09:56:51;;;;;;;10.10;5.45;;;;;;;;;;5079860;28;20028;-78
2024/01/21 09:59:16;;;;;;;10.10;5.03;;;;;;;;;;5075177;28;20041;-78
2024/01/21 10:01:42;;;;;;;11.88;5.90;;;;;;;;;;5075091;28;20115;-79
2024/01/21 10:04:08;;;;;;;9.82;5.53;;;;;;;;;;5076440;28;20679;-79
2024/01/21 10:06:33;;;;;;;13.13;6.43;;;;;;;;;;5072977;28;20040;-79
2024/01/21 10:09:11;;;;;;;9.93;5.25;;;;;;;;;;5072611;28;20071;-79
2024/01/21 10:11:36;;;;;;;9.80;5.22;;;;;;;;;;5075198;28;20024;-79
2024/01/21 10:14:01;;;;;;;11.43;5.32;;;;;;;;;;5078628;28;20565;-79
2024/01/21 10:16:27;;;;;;;9.75;4.72;;;;;;;;;;5080132;28;20044;-79
2024/01/21 10:18:52;;;;;;;8.13;4.45;;;;;;;;;;5072468;28;20066;-79
2024/01/21 10:21:18;;;;;;;9.85;4.68;;;;;;;;;;5072900;28;20032;-79
2024/01/21 10:23:43;;;;;;;9.57;5.20;;;;;;;;;;5075696;28;20032;-79
2024/01/21 10:26:08;;;;;;;8.77;4.57;;;;;;;;;;5072705;28;20032;-79
2024/01/21 10:28:35;;;;;;;9.32;4.88;;;;;;;;;;5072114;28;20097;-80
2024/01/21 10:31:00;;;;;;;10.63;5.05;;;;;;;;;;5072109;28;20029;-80
2024/01/21 10:33:26;;;;;;;9.43;5.25;;;;;;;;;;5077367;28;20510;-79
2024/01/21 10:35:53;;;;;;;9.55;4.68;;;;;;;;;;5076848;28;20044;-79
2024/01/21 10:38:19;;;;;;;8.80;5.18;;;;;;;;;;5074263;28;20036;-81
2024/01/21 10:40:44;;;;;;;9.18;4.50;;;;;;;;;;5071808;28;20724;-82
2024/01/21 10:43:13;;;;;;;9.57;5.40;;;;;;;;;;5078736;28;20111;-80
2024/01/21 10:45:38;;;;;;;10.45;5.28;;;;;;;;;;5075851;28;20588;-79
2024/01/21 10:48:04;;;;;;;10.00;5.38;;;;;;;;;;5073281;28;20115;-79
2024/01/21 10:50:29;;;;;;;9.40;5.03;;;;;;;;;;5072215;28;20078;-77
2024/01/21 10:52:55;;;;;;;8.68;4.57;;;;;;;;;;5075394;28;20035;-77
2024/01/21 10:55:20;;;;;;;8.68;4.68;;;;;;;;;;5070112;28;20060;-77
2024/01/21 10:57:50;;;;;;;11.88;5.47;;;;;;;;;;5070873;28;20086;-77
2024/01/21 11:00:16;;;;;;;11.77;5.00;;;;;;;;;;5069534;28;20117;-77
2024/01/21 11:02:41;;;;;;;12.25;4.93;;;;;;;;;;5074770;28;20547;-76
2024/01/21 11:05:06;;;;;;;11.55;5.18;;;;;;;;;;5070916;28;20410;-77
2024/01/21 11:07:32;;;;;;;9.38;5.07;;;;;;;;;;5070753;28;20032;-76
2024/01/21 11:09:57;;;;;;;12.02;5.60;;;;;;;;;;5070649;28;20047;-76
2024/01/21 11:12:22;;;;;;;11.07;5.82;;;;;;;;;;5072962;28;20077;-77
2024/01/21 11:14:48;;;;;;;10.20;5.07;;;;;;;;;;5071147;28;20060;-77
2024/01/21 11:17:20;;;;;;;9.43;5.35;;;;;;;;;;5070802;28;20505;-77
2024/01/21 11:19:48;;;;;;;9.57;5.40;;;;;;;;;;5070379;28;20401;-77
2024/01/21 11:22:14;;;;;;;10.43;5.75;;;;;;;;;;5071138;28;20059;-75
2024/01/21 11:24:40;;;;;;;9.93;5.40;;;;;;;;;;5072045;28;20484;-76
2024/01/21 11:27:13;;;;;;;11.45;5.32;;;;;;;;;;5078006;28;20040;-76
2024/01/21 11:29:39;;;;;;;11.10;5.57;;;;;;;;;;5071466;28;20047;-78
2024/01/21 11:32:05;;;;;;;9.95;5.88;;;;;;;;;;5071436;28;20021;-77
2024/01/21 11:34:38;;;;;;;9.95;5.32;;;;;;;;;;5074844;28;20045;-77
2024/01/21 11:37:08;;;;;;;12.00;5.10;;;;;;;;;;5080234;28;20070;-77
2024/01/21 11:39:33;;;;;;;10.85;5.68;;;;;;;;;;5068685;28;20497;-77
2024/01/21 11:41:59;;;;;;;10.82;6.20;;;;;;;;;;5070245;28;20043;-77
2024/01/21 11:44:25;;;;;;;10.90;5.88;;;;;;;;;;5074107;28;20028;-77
2024/01/21 11:46:55;;;;;;;11.90;5.20;;;;;;;;;;5070412;28;20550;-77
2024/01/21 11:49:20;;;;;;;10.02;4.93;;;;;;;;;;5069004;28;20036;-77
2024/01/21 11:51:46;;;;;;;13.07;5.85;;;;;;;;;;5065151;28;20592;-77
2024/01/21 11:54:12;;;;;;;9.20;4.80;;;;;;;;;;5084382;28;20034;-76
2024/01/21 11:56:37;;;;;;;9.13;4.88;;;;;;;;;;5085334;28;20028;-76
2024/01/21 11:59:06;;;;;;;10.45;5.75;;;;;;;;;;5084706;28;20404;-77
2024/01/21 12:01:33;;;;;;;10.18;4.95;;;;;;;;;;5084076;28;20043;-77
2024/01/21 12:04:00;;;;;;;9.30;5.00;;;;;;;;;;5083099;28;20025;-77
2024/01/21 12:06:25;;;;;;;8.23;4.85;;;;;;;;;;5081652;28;20023;-76
2024/01/21 12:08:51;;;;;;;8.95;4.88;;;;;;;;;;5084174;28;20384;-77
2024/01/21 12:11:16;;;;;;;10.43;5.30;;;;;;;;;;5086711;28;20028;-77
2024/01/21 12:13:43;;;;;;;9.90;4.95;;;;;;;;;;5086758;28;20043;-77
2024/01/21 12:16:08;;;;;;;9.07;4.97;;;;;;;;;;5081028;28;20036;-77
2024/01/21 12:18:41;;;;;;;9.68;5.40;;;;;;;;;;5084139;28;20042;-77
2024/01/21 12:21:07;;;;;;;7.95;4.05;;;;;;;;;;5081642;28;20526;-77
2024/01/21 12:23:32;;;;;;;8.40;4.72;;;;;;;;;;5082673;28;20105;-77
2024/01/21 12:25:57;;;;;;;9.32;4.90;;;;;;;;;;5075798;28;20408;-77
2024/01/21 12:28:23;;;;;;;8.30;4.65;;;;;;;;;;5081310;28;20064;-77
2024/01/21 12:30:48;;;;;;;8.10;4.50;;;;;;;;;;5075834;28;20061;-77
2024/01/21 12:33:13;;;;;;;9.93;5.75;;;;;;;;;;5082618;28;20035;-77
2024/01/21 12:35:38;;;;;;;8.35;4.20;;;;;;;;;;5069234;28;20518;-77
2024/01/21 12:38:04;;;;;;;5.93;3.45;;;;;;;;;;5076577;28;20025;-77
2024/01/21 12:40:29;;;;;;;8.02;4.07;;;;;;;;;;5077181;28;20048;-76
2024/01/21 12:42:54;;;;;;;7.93;4.07;;;;;;;;;;5079120;28;20450;-77
2024/01/21 12:45:19;;;;;;;9.07;3.92;;;;;;;;;;5090713;28;20119;-77
2024/01/21 12:47:46;;;;;;;7.90;3.50;;;;;;;;;;5084123;28;20097;-77
2024/01/21 12:50:11;;;;;;;5.65;2.97;;;;;;;;;;5078511;28;20058;-77
2024/01/21 12:52:37;;;;;;;6.40;3.65;;;;;;;;;;5085619;28;20044;-77
2024/01/21 12:55:03;;;;;;;6.90;3.60;;;;;;;;;;5074375;28;20029;-77
2024/01/21 12:57:28;;;;;;;5.88;3.42;;;;;;;;;;5073801;28;20456;-77
2024/01/21 12:59:53;;;;;;;7.82;3.28;;;;;;;;;;5079781;28;20035;-77
2024/01/21 13:02:18;;;;;;;6.30;3.25;;;;;;;;;;5088478;28;20461;-77
2024/01/21 13:04:44;;;;;;;7.13;3.17;;;;;;;;;;5073507;28;20099;-77
2024/01/21 13:07:09;;;;;;;6.13;2.95;;;;;;;;;;5076743;28;20029;-77
2024/01/21 13:09:34;;;;;;;7.70;2.90;;;;;;;;;;5070869;28;20432;-77
2024/01/21 13:11:59;;;;;;;5.85;2.78;;;;;;;;;;5074976;28;20389;-77
2024/01/21 13:14:24;;;;;;;5.88;3.00;;;;;;;;;;5074092;28;20025;-77
2024/01/21 13:16:50;;;;;;;6.53;3.08;;;;;;;;;;5073419;28;20441;-77
2024/01/21 13:19:15;;;;;;;6.95;2.88;;;;;;;;;;5072885;28;20082;-77
2024/01/21 13:21:40;;;;;;;6.05;2.92;;;;;;;;;;5076594;28;20464;-77
2024/01/21 13:24:05;;;;;;;7.45;3.50;;;;;;;;;;5078570;28;20099;-77
2024/01/21 13:26:30;;;;;;;6.10;3.35;;;;;;;;;;5072744;28;20027;-77
2024/01/21 13:31:34;;;;;;;8.05;3.50;;;;;;;;;;5075077;28;20051;-77
2024/01/21 13:34:01;;;;;;;6.22;3.17;;;;;;;;;;5076989;28;20696;-77
2024/01/21 13:36:26;;;;;;;6.97;3.47;;;;;;;;;;5072876;28;20123;-77
2024/01/21 13:38:51;;;;;;;6.15;3.08;;;;;;;;;;5072086;28;20183;-77
2024/01/21 13:41:16;;;;;;;5.38;2.90;;;;;;;;;;5072677;28;20033;-77
2024/01/21 13:43:42;;;;;;;6.95;3.38;;;;;;;;;;5072892;28;20039;-77
2024/01/21 13:46:07;;;;;;;6.07;2.67;;;;;;;;;;5080417;28;20400;-77
2024/01/21 13:48:33;;;;;;;6.00;3.00;;;;;;;;;;5072125;28;20069;-77
2024/01/21 13:50:58;;;;;;;6.43;2.90;;;;;;;;;;5072395;28;20111;-77
2024/01/21 13:53:23;;;;;;;6.78;3.67;;;;;;;;;;5084385;28;20029;-77
2024/01/21 13:55:48;;;;;;;7.65;3.42;;;;;;;;;;5072072;28;20036;-77
2024/01/21 13:58:16;;;;;;;6.53;3.03;;;;;;;;;;5071981;28;20106;-77
2024/01/21 14:00:42;;;;;;;6.45;3.00;;;;;;;;;;5077995;28;20496;-77
2024/01/21 14:03:07;;;;;;;7.68;3.67;;;;;;;;;;5080560;28;20024;-77
2024/01/21 14:05:33;;;;;;;6.03;2.75;;;;;;;;;;5073532;28;20033;-77
2024/01/21 14:07:59;;;;;;;6.05;2.65;;;;;;;;;;5071769;28;20435;-77
2024/01/21 14:10:24;;;;;;;6.07;2.47;;;;;;;;;;5071610;28;20110;-77
2024/01/21 14:12:49;;;;;;;5.10;2.90;;;;;;;;;;5079019;28;20028;-77
2024/01/21 14:15:15;;;;;;;7.10;3.30;;;;;;;;;;5076860;28;20028;-77
2024/01/21 14:17:40;;;;;;;6.68;2.90;;;;;;;;;;5070487;28;20067;-77
2024/01/21 14:20:08;;;;;;;7.72;3.58;;;;;;;;;;5074721;28;20032;-77
2024/01/21 14:22:33;;;;;;;6.40;2.95;;;;;;;;;;5075790;28;20028;-77
2024/01/21 14:24:59;;;;;;;5.45;2.88;;;;;;;;;;5082433;28;20020;-77
2024/01/21 14:27:24;;;;;;;6.00;3.33;;;;;;;;;;5071895;28;20044;-77